sensor_id;sensor_type;location;lat;lon;timestamp;pressure;altitude;pressure_sealevel;temperature;humidity
22653;BME280;11493;43.344;26.226;2023-04-05T00:01:57;98854.34;;;4.82;100.00
22653;BME280;11493;43.344;26.226;2023-04-05T00:04:26;98850.25;;;4.85;100.00
22653;BME280;11493;43.344;26.226;2023-04-05T00:06:54;98846.41;;;4.86;100.00
22653;BME280;11493;43.344;26.226;2023-04-05T00:09:23;98846.66;;;4.89;100.00
22653;BME280;11493;43.344;26.226;2023-04-05T00:11:50;98843.63;;;4.91;100.00
22653;BME280;11493;43.344;26.226;2023-04-05T00:14:17;98851.53;;;4.92;100.00
22653;BME280;11493;43.344;26.226;2023-04-05T00:16:44;98839.84;;;4.87;100.00
22653;BME280;11493;43.344;26.226;2023-04-05T00:19:11;98844.44;;;4.91;100.00
22653;BME280;11493;43.344;26.226;2023-04-05T00:21:38;98843.88;;;4.94;100.00
22653;BME280;11493;43.344;26.226;2023-04-05T00:24:06;98846.53;;;5.00;100.00
22653;BME280;11493;43.344;26.226;2023-04-05T00:26:33;98835.97;;;4.93;100.00
22653;BME280;11493;43.344;26.226;2023-04-05T00:29:02;98831.50;;;5.02;100.00
22653;BME280;11493;43.344;26.226;2023-04-05T00:31:29;98830.63;;;5.07;100.00
22653;BME280;11493;43.344;26.226;2023-04-05T00:33:56;98821.72;;;5.01;100.00
22653;BME280;11493;43.344;26.226;2023-04-05T00:36:24;98823.22;;;4.88;100.00
22653;BME280;11493;43.344;26.226;2023-04-05T00:38:53;98831.16;;;4.85;100.00
22653;BME280;11493;43.344;26.226;2023-04-05T00:41:21;98825.13;;;4.88;100.00
22653;BME280;11493;43.344;26.226;2023-04-05T00:43:48;98821.00;;;4.90;100.00
22653;BME280;11493;43.344;26.226;2023-04-05T00:46:15;98824.31;;;4.87;100.00
22653;BME280;11493;43.344;26.226;2023-04-05T00:48:43;98827.63;;;4.84;100.00
22653;BME280;11493;43.344;26.226;2023-04-05T00:51:10;98808.31;;;4.81;100.00
22653;BME280;11493;43.344;26.226;2023-04-05T00:53:38;98818.09;;;4.82;100.00
22653;BME280;11493;43.344;26.226;2023-04-05T00:56:07;98813.47;;;4.82;100.00
22653;BME280;11493;43.344;26.226;2023-04-05T00:58:35;98818.91;;;4.82;100.00
22653;BME280;11493;43.344;26.226;2023-04-05T01:01:09;98821.59;;;4.87;100.00
22653;BME280;11493;43.344;26.226;2023-04-05T01:03:58;98799.31;;;4.80;100.00
22653;BME280;11493;43.344;26.226;2023-04-05T01:09:39;98823.22;;;4.88;100.00
22653;BME280;11493;43.344;26.226;2023-04-05T01:12:16;98815.28;;;4.92;100.00
22653;BME280;11493;43.344;26.226;2023-04-05T01:14:51;98810.97;;;4.86;100.00
22653;BME280;11493;43.344;26.226;2023-04-05T01:17:21;98813.66;;;4.91;100.00
22653;BME280;11493;43.344;26.226;2023-04-05T01:19:54;98816.66;;;4.89;100.00
22653;BME280;11493;43.344;26.226;2023-04-05T01:30:31;98803.44;;;4.78;100.00
22653;BME280;11493;43.344;26.226;2023-04-05T01:33:15;98803.59;;;4.86;100.00
22653;BME280;11493;43.344;26.226;2023-04-05T01:35:52;98798.78;;;4.78;100.00
22653;BME280;11493;43.344;26.226;2023-04-05T01:38:23;98805.59;;;4.81;100.00
22653;BME280;11493;43.344;26.226;2023-04-05T01:40:51;98812.13;;;4.80;100.00
22653;BME280;11493;43.344;26.226;2023-04-05T01:43:19;98806.44;;;4.76;100.00
22653;BME280;11493;43.344;26.226;2023-04-05T01:45:46;98808.88;;;4.78;100.00
22653;BME280;11493;43.344;26.226;2023-04-05T01:48:14;98806.69;;;4.80;100.00
22653;BME280;11493;43.344;26.226;2023-04-05T01:50:42;98807.22;;;4.82;100.00
22653;BME280;11493;43.344;26.226;2023-04-05T01:53:09;98805.59;;;4.81;100.00
22653;BME280;11493;43.344;26.226;2023-04-05T01:55:36;98810.69;;;4.87;100.00
22653;BME280;11493;43.344;26.226;2023-04-05T01:58:03;98812.59;;;4.87;100.00
22653;BME280;11493;43.344;26.226;2023-04-05T02:00:30;98800.31;;;4.89;100.00
22653;BME280;11493;43.344;26.226;2023-04-05T02:02:58;98807.66;;;4.89;100.00
22653;BME280;11493;43.344;26.226;2023-04-05T02:05:25;98806.03;;;4.88;100.00
22653;BME280;11493;43.344;26.226;2023-04-05T02:07:52;98809.34;;;4.85;100.00
22653;BME280;11493;43.344;26.226;2023-04-05T02:10:22;98811.22;;;4.89;100.00
22653;BME280;11493;43.344;26.226;2023-04-05T02:12:49;98813.13;;;4.89;100.00
22653;BME280;11493;43.344;26.226;2023-04-05T02:15:16;98812.03;;;4.90;100.00
22653;BME280;11493;43.344;26.226;2023-04-05T02:17:43;98814.69;;;4.95;100.00
22653;BME280;11493;43.344;26.226;2023-04-05T02:20:13;98810.50;;;5.03;100.00
22653;BME280;11493;43.344;26.226;2023-04-05T02:22:41;98814.50;;;5.10;100.00
22653;BME280;11493;43.344;26.226;2023-04-05T02:25:11;98816.66;;;5.13;100.00
22653;BME280;11493;43.344;26.226;2023-04-05T02:27:39;98814.22;;;5.12;100.00
22653;BME280;11493;43.344;26.226;2023-04-05T02:30:06;98816.06;;;5.16;100.00
22653;BME280;11493;43.344;26.226;2023-04-05T02:32:33;98820.44;;;5.17;100.00
22653;BME280;11493;43.344;26.226;2023-04-05T02:35:01;98822.34;;;5.17;100.00
22653;BME280;11493;43.344;26.226;2023-04-05T02:37:28;98819.81;;;5.20;100.00
22653;BME280;11493;43.344;26.226;2023-04-05T02:39:55;98819.31;;;5.18;100.00
22653;BME280;11493;43.344;26.226;2023-04-05T02:42:22;98815.25;;;5.16;100.00
22653;BME280;11493;43.344;26.226;2023-04-05T02:44:50;98804.78;;;5.23;100.00
22653;BME280;11493;43.344;26.226;2023-04-05T02:47:17;98811.28;;;5.27;100.00
22653;BME280;11493;43.344;26.226;2023-04-05T02:49:58;98804.72;;;5.28;100.00
22653;BME280;11493;43.344;26.226;2023-04-05T02:52:31;98804.50;;;5.24;100.00
22653;BME280;11493;43.344;26.226;2023-04-05T02:54:58;98814.81;;;5.27;100.00
22653;BME280;11493;43.344;26.226;2023-04-05T02:57:28;98806.09;;;5.25;100.00
22653;BME280;11493;43.344;26.226;2023-04-05T03:00:03;98816.66;;;5.32;100.00
22653;BME280;11493;43.344;26.226;2023-04-05T03:02:31;98801.47;;;5.26;100.00
22653;BME280;11493;43.344;26.226;2023-04-05T03:05:00;98807.38;;;5.33;100.00
22653;BME280;11493;43.344;26.226;2023-04-05T03:07:30;98815.84;;;5.32;100.00
22653;BME280;11493;43.344;26.226;2023-04-05T03:10:00;98818.06;;;5.29;100.00
22653;BME280;11493;43.344;26.226;2023-04-05T03:12:28;98821.31;;;5.32;100.00
22653;BME280;11493;43.344;26.226;2023-04-05T03:14:56;98810.97;;;5.28;100.00
22653;BME280;11493;43.344;26.226;2023-04-05T03:17:24;98805.41;;;5.20;100.00
22653;BME280;11493;43.344;26.226;2023-04-05T03:20:00;98820.25;;;5.27;100.00
22653;BME280;11493;43.344;26.226;2023-04-05T03:22:28;98809.94;;;5.24;100.00
22653;BME280;11493;43.344;26.226;2023-04-05T03:24:55;98804.06;;;5.17;100.00
22653;BME280;11493;43.344;26.226;2023-04-05T03:27:24;98814.75;;;5.14;100.00
22653;BME280;11493;43.344;26.226;2023-04-05T03:30:05;98829.13;;;5.19;100.00
22653;BME280;11493;43.344;26.226;2023-04-05T03:32:37;98832.50;;;5.11;100.00
22653;BME280;11493;43.344;26.226;2023-04-05T03:35:33;98821.81;;;4.91;100.00
22653;BME280;11493;43.344;26.226;2023-04-05T03:38:02;98824.59;;;4.86;100.00
22653;BME280;11493;43.344;26.226;2023-04-05T03:40:29;98832.78;;;4.86;100.00
22653;BME280;11493;43.344;26.226;2023-04-05T03:42:57;98830.16;;;4.76;100.00
22653;BME280;11493;43.344;26.226;2023-04-05T03:45:25;98839.69;;;4.78;100.00
22653;BME280;11493;43.344;26.226;2023-04-05T03:47:53;98842.75;;;4.72;100.00
22653;BME280;11493;43.344;26.226;2023-04-05T03:50:21;98838.44;;;4.66;100.00
22653;BME280;11493;43.344;26.226;2023-04-05T03:52:47;98830.84;;;4.62;100.00
22653;BME280;11493;43.344;26.226;2023-04-05T03:55:15;98843.13;;;4.60;100.00
22653;BME280;11493;43.344;26.226;2023-04-05T03:57:46;98831.00;;;4.47;100.00
22653;BME280;11493;43.344;26.226;2023-04-05T04:00:23;98837.53;;;4.46;100.00
22653;BME280;11493;43.344;26.226;2023-04-05T04:03:14;98851.47;;;4.45;100.00
22653;BME280;11493;43.344;26.226;2023-04-05T04:05:44;98842.53;;;4.39;100.00
22653;BME280;11493;43.344;26.226;2023-04-05T04:08:12;98847.41;;;4.42;100.00
22653;BME280;11493;43.344;26.226;2023-04-05T04:10:39;98848.97;;;4.48;100.00
22653;BME280;11493;43.344;26.226;2023-04-05T04:13:20;98848.44;;;4.46;100.00
22653;BME280;11493;43.344;26.226;2023-04-05T04:15:56;98857.00;;;4.63;100.00
22653;BME280;11493;43.344;26.226;2023-04-05T04:18:44;98854.50;;;4.67;100.00
22653;BME280;11493;43.344;26.226;2023-04-05T04:21:23;98861.91;;;4.61;100.00
22653;BME280;11493;43.344;26.226;2023-04-05T04:24:09;98848.34;;;4.56;100.00
22653;BME280;11493;43.344;26.226;2023-04-05T04:27:02;98846.09;;;4.63;100.00
22653;BME280;11493;43.344;26.226;2023-04-05T04:30:09;98849.63;;;4.64;100.00
22653;BME280;11493;43.344;26.226;2023-04-05T04:32:48;98855.94;;;4.59;100.00
22653;BME280;11493;43.344;26.226;2023-04-05T04:35:36;98843.47;;;4.53;100.00
22653;BME280;11493;43.344;26.226;2023-04-05T04:38:16;98845.91;;;4.55;100.00
22653;BME280;11493;43.344;26.226;2023-04-05T04:41:05;98846.19;;;4.53;100.00
22653;BME280;11493;43.344;26.226;2023-04-05T04:43:44;98844.16;;;4.40;100.00
22653;BME280;11493;43.344;26.226;2023-04-05T04:46:25;98854.38;;;4.53;100.00
22653;BME280;11493;43.344;26.226;2023-04-05T04:49:02;98848.88;;;4.58;100.00
22653;BME280;11493;43.344;26.226;2023-04-05T04:51:32;98859.56;;;4.50;100.00
22653;BME280;11493;43.344;26.226;2023-04-05T04:53:59;98844.16;;;4.40;100.00
22653;BME280;11493;43.344;26.226;2023-04-05T04:56:26;98847.22;;;4.34;100.00
22653;BME280;11493;43.344;26.226;2023-04-05T04:58:56;98843.19;;;4.26;100.00
22653;BME280;11493;43.344;26.226;2023-04-05T05:01:23;98849.31;;;4.42;100.00
22653;BME280;11493;43.344;26.226;2023-04-05T05:03:51;98853.94;;;4.41;100.00
22653;BME280;11493;43.344;26.226;2023-04-05T05:06:25;98853.66;;;4.43;100.00
22653;BME280;11493;43.344;26.226;2023-04-05T05:08:53;98860.94;;;4.47;100.00
22653;BME280;11493;43.344;26.226;2023-04-05T05:11:20;98854.56;;;4.62;100.00
22653;BME280;11493;43.344;26.226;2023-04-05T05:13:47;98863.97;;;4.46;100.00
22653;BME280;11493;43.344;26.226;2023-04-05T05:16:22;98866.50;;;4.37;100.00
22653;BME280;11493;43.344;26.226;2023-04-05T05:18:50;98868.91;;;4.44;100.00
22653;BME280;11493;43.344;26.226;2023-04-05T05:21:17;98865.13;;;4.40;100.00
22653;BME280;11493;43.344;26.226;2023-04-05T05:23:51;98855.28;;;4.44;100.00
22653;BME280;11493;43.344;26.226;2023-04-05T05:26:18;98862.66;;;4.43;100.00
22653;BME280;11493;43.344;26.226;2023-04-05T05:28:45;98852.28;;;4.45;100.00
22653;BME280;11493;43.344;26.226;2023-04-05T05:31:14;98852.94;;;4.61;100.00
22653;BME280;11493;43.344;26.226;2023-04-05T05:33:43;98852.41;;;4.59;100.00
22653;BME280;11493;43.344;26.226;2023-04-05T05:36:15;98858.75;;;4.49;100.00
22653;BME280;11493;43.344;26.226;2023-04-05T05:38:42;98869.31;;;4.56;100.00
22653;BME280;11493;43.344;26.226;2023-04-05T05:41:09;98868.03;;;4.48;100.00
22653;BME280;11493;43.344;26.226;2023-04-05T05:43:36;98878.78;;;4.63;100.00
22653;BME280;11493;43.344;26.226;2023-04-05T05:46:03;98850.50;;;4.59;100.00
22653;BME280;11493;43.344;26.226;2023-04-05T05:48:30;98875.16;;;4.73;100.00
22653;BME280;11493;43.344;26.226;2023-04-05T05:50:58;98863.38;;;4.78;100.00
22653;BME280;11493;43.344;26.226;2023-04-05T05:53:27;98874.63;;;4.71;100.00
22653;BME280;11493;43.344;26.226;2023-04-05T05:55:54;98875.59;;;4.85;100.00
22653;BME280;11493;43.344;26.226;2023-04-05T05:58:22;98878.72;;;4.98;100.00
22653;BME280;11493;43.344;26.226;2023-04-05T06:00:49;98885.75;;;5.04;100.00
22653;BME280;11493;43.344;26.226;2023-04-05T06:03:17;98885.94;;;5.12;100.00
22653;BME280;11493;43.344;26.226;2023-04-05T06:05:58;98880.78;;;5.11;100.00
22653;BME280;11493;43.344;26.226;2023-04-05T06:08:25;98882.34;;;5.17;100.00
22653;BME280;11493;43.344;26.226;2023-04-05T06:10:55;98888.38;;;5.14;100.00
22653;BME280;11493;43.344;26.226;2023-04-05T06:13:23;98900.72;;;5.06;100.00
22653;BME280;11493;43.344;26.226;2023-04-05T06:15:50;98893.53;;;5.15;100.00
22653;BME280;11493;43.344;26.226;2023-04-05T06:18:18;98906.69;;;5.32;100.00
22653;BME280;11493;43.344;26.226;2023-04-05T06:20:46;98908.88;;;5.54;100.00
22653;BME280;11493;43.344;26.226;2023-04-05T06:23:13;98901.16;;;5.37;100.00
22653;BME280;11493;43.344;26.226;2023-04-05T06:25:42;98903.94;;;5.56;100.00
22653;BME280;11493;43.344;26.226;2023-04-05T06:28:09;98908.69;;;5.69;100.00
22653;BME280;11493;43.344;26.226;2023-04-05T06:30:36;98905.75;;;5.84;100.00
22653;BME280;11493;43.344;26.226;2023-04-05T06:33:03;98904.50;;;5.77;100.00
22653;BME280;11493;43.344;26.226;2023-04-05T06:35:31;98910.75;;;5.77;100.00
22653;BME280;11493;43.344;26.226;2023-04-05T06:37:58;98901.91;;;5.85;100.00
22653;BME280;11493;43.344;26.226;2023-04-05T06:40:25;98900.13;;;5.76;99.66
22653;BME280;11493;43.344;26.226;2023-04-05T06:42:51;98897.63;;;5.79;99.76
22653;BME280;11493;43.344;26.226;2023-04-05T06:45:22;98912.38;;;5.78;98.76
22653;BME280;11493;43.344;26.226;2023-04-05T06:47:49;98913.09;;;5.65;99.39
22653;BME280;11493;43.344;26.226;2023-04-05T06:50:16;98889.34;;;5.66;98.75
22653;BME280;11493;43.344;26.226;2023-04-05T06:52:43;98900.06;;;5.81;100.00
22653;BME280;11493;43.344;26.226;2023-04-05T06:55:10;98901.63;;;5.87;99.16
22653;BME280;11493;43.344;26.226;2023-04-05T06:57:37;98904.66;;;6.04;98.05
22653;BME280;11493;43.344;26.226;2023-04-05T07:00:05;98919.72;;;6.20;98.31
22653;BME280;11493;43.344;26.226;2023-04-05T07:02:39;98924.16;;;6.16;98.60
22653;BME280;11493;43.344;26.226;2023-04-05T07:05:06;98918.47;;;6.13;98.74
22653;BME280;11493;43.344;26.226;2023-04-05T07:07:39;98921.78;;;6.10;98.55
22653;BME280;11493;43.344;26.226;2023-04-05T07:10:07;98917.94;;;6.11;98.24
22653;BME280;11493;43.344;26.226;2023-04-05T07:12:34;98925.41;;;6.24;98.83
22653;BME280;11493;43.344;26.226;2023-04-05T07:15:01;98932.28;;;6.21;98.21
22653;BME280;11493;43.344;26.226;2023-04-05T07:17:28;98907.09;;;6.24;97.48
22653;BME280;11493;43.344;26.226;2023-04-05T07:19:55;98932.50;;;6.25;98.59
22653;BME280;11493;43.344;26.226;2023-04-05T07:22:22;98933.53;;;6.29;97.75
22653;BME280;11493;43.344;26.226;2023-04-05T07:24:49;98928.44;;;6.22;96.44
22653;BME280;11493;43.344;26.226;2023-04-05T07:27:18;98936.56;;;6.28;96.91
22653;BME280;11493;43.344;26.226;2023-04-05T07:29:45;98929.97;;;6.47;97.29
22653;BME280;11493;43.344;26.226;2023-04-05T07:32:14;98932.09;;;6.50;95.59
22653;BME280;11493;43.344;26.226;2023-04-05T07:34:41;98929.38;;;6.50;96.38
22653;BME280;11493;43.344;26.226;2023-04-05T07:37:08;98945.13;;;6.72;98.00
22653;BME280;11493;43.344;26.226;2023-04-05T07:39:35;98949.88;;;6.67;96.97
22653;BME280;11493;43.344;26.226;2023-04-05T07:42:02;98947.63;;;6.69;97.24
22653;BME280;11493;43.344;26.226;2023-04-05T07:44:29;98950.44;;;6.82;96.94
22653;BME280;11493;43.344;26.226;2023-04-05T07:46:56;98951.09;;;6.74;96.02
22653;BME280;11493;43.344;26.226;2023-04-05T07:49:26;98956.78;;;6.78;94.43
22653;BME280;11493;43.344;26.226;2023-04-05T07:51:54;98947.63;;;6.69;94.46
22653;BME280;11493;43.344;26.226;2023-04-05T07:54:22;98953.00;;;6.60;94.28
22653;BME280;11493;43.344;26.226;2023-04-05T07:56:50;98951.31;;;6.78;94.60
22653;BME280;11493;43.344;26.226;2023-04-05T07:59:17;98937.88;;;6.81;94.74
22653;BME280;11493;43.344;26.226;2023-04-05T08:01:44;98948.72;;;6.86;94.89
22653;BME280;11493;43.344;26.226;2023-04-05T08:04:11;98950.22;;;6.79;93.58
22653;BME280;11493;43.344;26.226;2023-04-05T08:06:38;98947.47;;;6.79;94.67
22653;BME280;11493;43.344;26.226;2023-04-05T08:09:06;98950.50;;;6.64;95.19
22653;BME280;11493;43.344;26.226;2023-04-05T08:11:34;98947.91;;;6.86;95.84
22653;BME280;11493;43.344;26.226;2023-04-05T08:14:01;98951.16;;;6.88;95.59
22653;BME280;11493;43.344;26.226;2023-04-05T08:16:28;98948.44;;;7.02;95.97
22653;BME280;11493;43.344;26.226;2023-04-05T08:18:56;98951.53;;;7.14;95.35
22653;BME280;11493;43.344;26.226;2023-04-05T08:21:23;98953.72;;;6.98;93.37
22653;BME280;11493;43.344;26.226;2023-04-05T08:23:50;98956.81;;;7.24;93.29
22653;BME280;11493;43.344;26.226;2023-04-05T08:26:18;98958.97;;;7.41;92.91
22653;BME280;11493;43.344;26.226;2023-04-05T08:28:45;98955.81;;;7.61;91.50
22653;BME280;11493;43.344;26.226;2023-04-05T08:31:12;98963.50;;;7.59;90.63
22653;BME280;11493;43.344;26.226;2023-04-05T08:33:39;98966.13;;;7.50;92.56
22653;BME280;11493;43.344;26.226;2023-04-05T08:36:08;98956.91;;;7.60;92.39
22653;BME280;11493;43.344;26.226;2023-04-05T08:38:36;98962.91;;;7.76;91.72
22653;BME280;11493;43.344;26.226;2023-04-05T08:41:17;98946.97;;;7.50;91.49
22653;BME280;11493;43.344;26.226;2023-04-05T08:43:59;98952.03;;;7.57;92.22
22653;BME280;11493;43.344;26.226;2023-04-05T08:46:32;98968.88;;;7.78;93.17
22653;BME280;11493;43.344;26.226;2023-04-05T08:49:07;98962.41;;;7.74;92.93
22653;BME280;11493;43.344;26.226;2023-04-05T08:51:36;98965.84;;;7.79;90.10
22653;BME280;11493;43.344;26.226;2023-04-05T08:54:04;98975.06;;;7.70;91.64
22653;BME280;11493;43.344;26.226;2023-04-05T08:56:33;98979.00;;;7.50;91.79
22653;BME280;11493;43.344;26.226;2023-04-05T08:59:05;98979.09;;;7.45;92.81
22653;BME280;11493;43.344;26.226;2023-04-05T09:01:36;98971.13;;;7.76;92.90
22653;BME280;11493;43.344;26.226;2023-04-05T09:04:13;98976.78;;;7.79;91.88
22653;BME280;11493;43.344;26.226;2023-04-05T09:06:41;98976.78;;;7.66;91.18
22653;BME280;11493;43.344;26.226;2023-04-05T09:09:10;98974.97;;;7.75;90.94
22653;BME280;11493;43.344;26.226;2023-04-05T09:11:38;98976.50;;;7.81;91.57
22653;BME280;11493;43.344;26.226;2023-04-05T09:14:06;98968.38;;;7.89;89.11
22653;BME280;11493;43.344;26.226;2023-04-05T09:16:38;98963.31;;;7.69;89.73
22653;BME280;11493;43.344;26.226;2023-04-05T09:19:05;98983.47;;;8.01;90.16
22653;BME280;11493;43.344;26.226;2023-04-05T09:24:35;98977.00;;;7.97;89.13
22653;BME280;11493;43.344;26.226;2023-04-05T09:27:09;98975.16;;;8.06;89.93
22653;BME280;11493;43.344;26.226;2023-04-05T09:29:39;98990.47;;;8.07;89.43
22653;BME280;11493;43.344;26.226;2023-04-05T09:32:08;98975.75;;;8.03;89.89
22653;BME280;11493;43.344;26.226;2023-04-05T09:34:37;98974.56;;;7.81;88.72
22653;BME280;11493;43.344;26.226;2023-04-05T09:37:13;98981.66;;;8.10;91.30
22653;BME280;11493;43.344;26.226;2023-04-05T09:39:43;98984.53;;;8.27;88.66
22653;BME280;11493;43.344;26.226;2023-04-05T09:42:14;98953.25;;;7.92;88.52
22653;BME280;11493;43.344;26.226;2023-04-05T09:44:55;98972.09;;;8.07;90.04
22653;BME280;11493;43.344;26.226;2023-04-05T09:47:25;98981.16;;;8.30;89.58
22653;BME280;11493;43.344;26.226;2023-04-05T09:50:03;98972.19;;;8.16;89.16
22653;BME280;11493;43.344;26.226;2023-04-05T09:52:43;98985.53;;;8.31;90.05
22653;BME280;11493;43.344;26.226;2023-04-05T09:55:10;98981.78;;;8.27;90.05
22653;BME280;11493;43.344;26.226;2023-04-05T09:57:41;98976.91;;;8.24;89.25
22653;BME280;11493;43.344;26.226;2023-04-05T10:00:20;98990.38;;;8.12;90.00
22653;BME280;11493;43.344;26.226;2023-04-05T10:02:51;98972.63;;;8.09;89.94
22653;BME280;11493;43.344;26.226;2023-04-05T10:05:23;98949.81;;;7.86;89.09
22653;BME280;11493;43.344;26.226;2023-04-05T10:07:50;98975.75;;;8.16;89.60
22653;BME280;11493;43.344;26.226;2023-04-05T10:10:21;98972.81;;;8.13;89.92
22653;BME280;11493;43.344;26.226;2023-04-05T10:12:49;98969.06;;;8.09;90.59
22653;BME280;11493;43.344;26.226;2023-04-05T10:15:16;98973.94;;;8.12;90.38
22653;BME280;11493;43.344;26.226;2023-04-05T10:17:51;98981.28;;;8.39;89.59
22653;BME280;11493;43.344;26.226;2023-04-05T10:20:22;98984.00;;;8.52;90.24
22653;BME280;11493;43.344;26.226;2023-04-05T10:28:33;98968.41;;;8.62;88.52
22653;BME280;11493;43.344;26.226;2023-04-05T10:31:14;98980.91;;;8.68;89.20
22653;BME280;11493;43.344;26.226;2023-04-05T10:34:07;98979.28;;;8.67;87.44
22653;BME280;11493;43.344;26.226;2023-04-05T10:36:57;98977.53;;;8.35;87.47
22653;BME280;11493;43.344;26.226;2023-04-05T10:39:48;98970.50;;;8.29;87.30
22653;BME280;11493;43.344;26.226;2023-04-05T10:42:20;98974.38;;;8.41;86.83
22653;BME280;11493;43.344;26.226;2023-04-05T10:44:51;98937.19;;;8.13;87.43
22653;BME280;11493;43.344;26.226;2023-04-05T10:47:21;98973.97;;;8.20;88.72
22653;BME280;11493;43.344;26.226;2023-04-05T10:49:52;98972.25;;;8.38;88.58
22653;BME280;11493;43.344;26.226;2023-04-05T10:52:19;98967.88;;;8.37;87.39
22653;BME280;11493;43.344;26.226;2023-04-05T10:54:48;98970.28;;;8.52;88.03
22653;BME280;11493;43.344;26.226;2023-04-05T10:57:17;98966.34;;;8.45;88.44
22653;BME280;11493;43.344;26.226;2023-04-05T10:59:47;98965.28;;;8.54;89.75
22653;BME280;11493;43.344;26.226;2023-04-05T11:02:15;98979.56;;;8.65;85.59
22653;BME280;11493;43.344;26.226;2023-04-05T11:04:42;98969.50;;;8.74;87.07
22653;BME280;11493;43.344;26.226;2023-04-05T11:07:14;98964.91;;;8.92;85.18
22653;BME280;11493;43.344;26.226;2023-04-05T11:10:17;98973.13;;;9.14;85.05
22653;BME280;11493;43.344;26.226;2023-04-05T11:18:04;98973.63;;;8.94;85.86
22653;BME280;11493;43.344;26.226;2023-04-05T11:23:14;98975.59;;;8.71;84.93
22653;BME280;11493;43.344;26.226;2023-04-05T11:25:52;98971.31;;;8.79;86.17
22653;BME280;11493;43.344;26.226;2023-04-05T11:28:24;98959.72;;;9.13;86.05
22653;BME280;11493;43.344;26.226;2023-04-05T11:30:53;98969.84;;;9.35;85.12
22653;BME280;11493;43.344;26.226;2023-04-05T11:36:44;98963.34;;;9.70;85.23
22653;BME280;11493;43.344;26.226;2023-04-05T11:42:00;98974.94;;;9.98;81.58
22653;BME280;11493;43.344;26.226;2023-04-05T11:44:47;98968.63;;;9.98;83.27
22653;BME280;11493;43.344;26.226;2023-04-05T11:47:19;98971.41;;;9.58;80.09
22653;BME280;11493;43.344;26.226;2023-04-05T11:49:50;98972.09;;;9.72;81.69
22653;BME280;11493;43.344;26.226;2023-04-05T11:52:19;98976.16;;;9.75;80.96
22653;BME280;11493;43.344;26.226;2023-04-05T11:54:46;98975.16;;;9.62;81.45
22653;BME280;11493;43.344;26.226;2023-04-05T11:57:19;98978.34;;;9.25;81.41
22653;BME280;11493;43.344;26.226;2023-04-05T11:59:52;98983.56;;;9.04;82.23
22653;BME280;11493;43.344;26.226;2023-04-05T12:02:20;98963.78;;;9.15;83.91
22653;BME280;11493;43.344;26.226;2023-04-05T12:04:54;98979.31;;;8.98;82.58
22653;BME280;11493;43.344;26.226;2023-04-05T12:07:26;98969.16;;;8.53;82.73
22653;BME280;11493;43.344;26.226;2023-04-05T12:10:08;98979.16;;;8.72;83.62
22653;BME280;11493;43.344;26.226;2023-04-05T12:12:41;98980.47;;;8.74;84.94
22653;BME280;11493;43.344;26.226;2023-04-05T12:15:12;98968.34;;;8.53;84.49
22653;BME280;11493;43.344;26.226;2023-04-05T12:20:11;98974.25;;;8.46;85.50
22653;BME280;11493;43.344;26.226;2023-04-05T12:22:40;98965.72;;;8.48;86.76
22653;BME280;11493;43.344;26.226;2023-04-05T12:25:08;98976.66;;;8.62;86.76
22653;BME280;11493;43.344;26.226;2023-04-05T12:27:36;98966.88;;;8.33;84.94
22653;BME280;11493;43.344;26.226;2023-04-05T12:30:22;98973.13;;;8.47;87.08
22653;BME280;11493;43.344;26.226;2023-04-05T12:32:53;98975.88;;;8.47;85.29
22653;BME280;11493;43.344;26.226;2023-04-05T12:35:23;98980.94;;;8.54;86.36
22653;BME280;11493;43.344;26.226;2023-04-05T12:37:50;98968.59;;;8.65;84.43
22653;BME280;11493;43.344;26.226;2023-04-05T12:40:22;98980.28;;;8.71;84.11
22653;BME280;11493;43.344;26.226;2023-04-05T12:45:30;98979.47;;;8.70;84.29
22653;BME280;11493;43.344;26.226;2023-04-05T12:48:40;98974.72;;;8.62;83.92
22653;BME280;11493;43.344;26.226;2023-04-05T12:51:02;98987.75;;;8.79;84.58
22653;BME280;11493;43.344;26.226;2023-04-05T12:53:30;98994.88;;;8.80;85.76
22653;BME280;11493;43.344;26.226;2023-04-05T12:55:59;98980.59;;;8.69;85.12
22653;BME280;11493;43.344;26.226;2023-04-05T12:58:36;98986.69;;;8.66;86.83
22653;BME280;11493;43.344;26.226;2023-04-05T13:01:03;98990.72;;;8.46;85.80
22653;BME280;11493;43.344;26.226;2023-04-05T13:03:31;98991.63;;;8.42;86.56
22653;BME280;11493;43.344;26.226;2023-04-05T13:05:58;98996.63;;;8.40;85.24
22653;BME280;11493;43.344;26.226;2023-04-05T13:08:28;98954.56;;;7.95;85.04
22653;BME280;11493;43.344;26.226;2023-04-05T13:10:56;98988.31;;;8.17;86.22
22653;BME280;11493;43.344;26.226;2023-04-05T13:13:24;98990.25;;;8.17;86.26
22653;BME280;11493;43.344;26.226;2023-04-05T13:15:51;98983.47;;;8.14;87.33
22653;BME280;11493;43.344;26.226;2023-04-05T13:18:18;98977.53;;;8.21;85.84
22653;BME280;11493;43.344;26.226;2023-04-05T13:20:46;98982.78;;;8.31;85.59
22653;BME280;11493;43.344;26.226;2023-04-05T13:23:13;98977.63;;;8.43;85.49
22653;BME280;11493;43.344;26.226;2023-04-05T13:25:42;98978.50;;;8.52;85.31
22653;BME280;11493;43.344;26.226;2023-04-05T13:28:11;98974.84;;;8.57;85.68
22653;BME280;11493;43.344;26.226;2023-04-05T13:30:38;98974.41;;;8.64;85.66
22653;BME280;11493;43.344;26.226;2023-04-05T13:33:05;98974.97;;;8.74;86.42
22653;BME280;11493;43.344;26.226;2023-04-05T13:35:32;98969.56;;;8.83;84.08
22653;BME280;11493;43.344;26.226;2023-04-05T13:37:59;98972.22;;;8.74;84.43
22653;BME280;11493;43.344;26.226;2023-04-05T13:40:31;98971.56;;;9.00;84.51
22653;BME280;11493;43.344;26.226;2023-04-05T13:42:58;98975.81;;;9.06;83.45
22653;BME280;11493;43.344;26.226;2023-04-05T13:45:25;98962.41;;;9.04;84.20
22653;BME280;11493;43.344;26.226;2023-04-05T13:47:53;98981.38;;;9.14;84.46
22653;BME280;11493;43.344;26.226;2023-04-05T13:50:20;98972.63;;;9.12;85.03
22653;BME280;11493;43.344;26.226;2023-04-05T13:52:47;98976.56;;;9.20;84.60